sensor_id;sensor_type;location;lat;lon;timestamp;P1;durP1;ratioP1;P2;durP2;ratioP2
34497;SDS011;20744;50.938;7.286;2023-02-03T00:01:31;18.80;;;9.20;;
34497;SDS011;20744;50.938;7.286;2023-02-03T00:03:59;17.88;;;8.32;;
34497;SDS011;20744;50.938;7.286;2023-02-03T00:06:26;20.92;;;8.80;;
34497;SDS011;20744;50.938;7.286;2023-02-03T00:08:53;18.60;;;9.02;;
34497;SDS011;20744;50.938;7.286;2023-02-03T00:11:22;17.00;;;8.00;;
34497;SDS011;20744;50.938;7.286;2023-02-03T00:13:49;18.95;;;8.35;;
34497;SDS011;20744;50.938;7.286;2023-02-03T00:16:16;22.02;;;7.90;;
34497;SDS011;20744;50.938;7.286;2023-02-03T00:18:45;14.95;;;8.65;;
34497;SDS011;20744;50.938;7.286;2023-02-03T00:21:12;17.75;;;7.93;;
34497;SDS011;20744;50.938;7.286;2023-02-03T00:23:40;18.05;;;7.97;;
34497;SDS011;20744;50.938;7.286;2023-02-03T00:26:08;22.52;;;8.68;;
34497;SDS011;20744;50.938;7.286;2023-02-03T00:28:35;22.88;;;8.38;;
34497;SDS011;20744;50.938;7.286;2023-02-03T00:31:02;18.88;;;7.82;;
34497;SDS011;20744;50.938;7.286;2023-02-03T00:33:29;21.13;;;7.78;;
34497;SDS011;20744;50.938;7.286;2023-02-03T00:35:59;18.50;;;7.13;;
34497;SDS011;20744;50.938;7.286;2023-02-03T00:38:30;18.63;;;7.95;;
34497;SDS011;20744;50.938;7.286;2023-02-03T00:40:57;18.40;;;7.03;;
34497;SDS011;20744;50.938;7.286;2023-02-03T00:43:24;13.02;;;7.18;;
34497;SDS011;20744;50.938;7.286;2023-02-03T00:45:51;15.68;;;7.32;;
34497;SDS011;20744;50.938;7.286;2023-02-03T00:48:18;17.30;;;7.13;;
34497;SDS011;20744;50.938;7.286;2023-02-03T00:50:46;20.27;;;7.55;;
34497;SDS011;20744;50.938;7.286;2023-02-03T00:53:14;15.02;;;6.53;;
34497;SDS011;20744;50.938;7.286;2023-02-03T00:55:42;18.55;;;6.60;;
34497;SDS011;20744;50.938;7.286;2023-02-03T00:58:09;19.88;;;6.40;;
34497;SDS011;20744;50.938;7.286;2023-02-03T01:00:36;14.20;;;6.20;;
34497;SDS011;20744;50.938;7.286;2023-02-03T01:03:04;12.30;;;5.78;;
34497;SDS011;20744;50.938;7.286;2023-02-03T01:05:31;10.70;;;5.78;;
34497;SDS011;20744;50.938;7.286;2023-02-03T01:07:59;15.35;;;6.07;;
34497;SDS011;20744;50.938;7.286;2023-02-03T01:10:29;17.00;;;5.97;;
34497;SDS011;20744;50.938;7.286;2023-02-03T01:12:56;15.80;;;6.40;;
34497;SDS011;20744;50.938;7.286;2023-02-03T01:15:24;17.85;;;5.93;;
34497;SDS011;20744;50.938;7.286;2023-02-03T01:17:51;14.40;;;4.80;;
34497;SDS011;20744;50.938;7.286;2023-02-03T01:20:18;17.35;;;5.50;;
34497;SDS011;20744;50.938;7.286;2023-02-03T01:22:46;13.25;;;4.60;;
34497;SDS011;20744;50.938;7.286;2023-02-03T01:25:14;15.30;;;4.82;;
34497;SDS011;20744;50.938;7.286;2023-02-03T01:27:42;18.33;;;4.60;;
34497;SDS011;20744;50.938;7.286;2023-02-03T01:30:10;15.60;;;4.40;;
34497;SDS011;20744;50.938;7.286;2023-02-03T01:32:37;12.13;;;4.40;;
34497;SDS011;20744;50.938;7.286;2023-02-03T01:35:05;12.35;;;4.18;;
34497;SDS011;20744;50.938;7.286;2023-02-03T01:37:32;15.90;;;4.38;;
34497;SDS011;20744;50.938;7.286;2023-02-03T01:39:59;12.85;;;4.55;;
34497;SDS011;20744;50.938;7.286;2023-02-03T01:42:27;12.88;;;5.40;;
34497;SDS011;20744;50.938;7.286;2023-02-03T01:44:59;16.10;;;4.75;;
34497;SDS011;20744;50.938;7.286;2023-02-03T01:47:28;18.02;;;5.03;;
34497;SDS011;20744;50.938;7.286;2023-02-03T01:50:02;16.27;;;4.78;;
34497;SDS011;20744;50.938;7.286;2023-02-03T01:52:30;14.25;;;4.40;;
34497;SDS011;20744;50.938;7.286;2023-02-03T01:54:59;12.80;;;4.40;;
34497;SDS011;20744;50.938;7.286;2023-02-03T01:57:29;13.48;;;4.20;;
34497;SDS011;20744;50.938;7.286;2023-02-03T01:59:59;12.10;;;4.40;;
34497;SDS011;20744;50.938;7.286;2023-02-03T02:02:27;12.40;;;3.97;;
34497;SDS011;20744;50.938;7.286;2023-02-03T02:04:55;16.65;;;4.53;;
34497;SDS011;20744;50.938;7.286;2023-02-03T02:07:24;13.85;;;4.10;;
34497;SDS011;20744;50.938;7.286;2023-02-03T02:09:51;18.30;;;4.47;;
34497;SDS011;20744;50.938;7.286;2023-02-03T02:12:19;13.75;;;4.55;;
34497;SDS011;20744;50.938;7.286;2023-02-03T02:14:46;18.52;;;4.28;;
34497;SDS011;20744;50.938;7.286;2023-02-03T02:17:20;13.60;;;4.07;;
34497;SDS011;20744;50.938;7.286;2023-02-03T02:19:58;11.35;;;4.10;;
34497;SDS011;20744;50.938;7.286;2023-02-03T02:22:29;15.38;;;4.30;;
34497;SDS011;20744;50.938;7.286;2023-02-03T02:25:10;9.48;;;4.00;;
34497;SDS011;20744;50.938;7.286;2023-02-03T02:27:47;12.75;;;3.72;;
34497;SDS011;20744;50.938;7.286;2023-02-03T02:30:24;13.00;;;3.75;;
34497;SDS011;20744;50.938;7.286;2023-02-03T02:33:00;13.00;;;3.10;;
34497;SDS011;20744;50.938;7.286;2023-02-03T02:35:31;12.43;;;3.50;;
34497;SDS011;20744;50.938;7.286;2023-02-03T02:38:03;7.45;;;2.88;;
34497;SDS011;20744;50.938;7.286;2023-02-03T02:40:35;12.02;;;3.30;;
34497;SDS011;20744;50.938;7.286;2023-02-03T02:43:06;12.70;;;3.40;;
34497;SDS011;20744;50.938;7.286;2023-02-03T02:45:37;15.60;;;3.65;;
34497;SDS011;20744;50.938;7.286;2023-02-03T02:48:09;12.77;;;3.50;;
34497;SDS011;20744;50.938;7.286;2023-02-03T02:50:40;7.73;;;2.83;;
34497;SDS011;20744;50.938;7.286;2023-02-03T02:53:09;11.02;;;3.25;;
34497;SDS011;20744;50.938;7.286;2023-02-03T02:55:38;11.88;;;2.85;;
34497;SDS011;20744;50.938;7.286;2023-02-03T02:58:07;7.03;;;2.90;;
34497;SDS011;20744;50.938;7.286;2023-02-03T03:00:35;12.48;;;2.90;;
34497;SDS011;20744;50.938;7.286;2023-02-03T03:03:11;15.10;;;3.20;;
34497;SDS011;20744;50.938;7.286;2023-02-03T03:05:39;9.73;;;2.80;;
34497;SDS011;20744;50.938;7.286;2023-02-03T03:08:07;7.82;;;2.65;;
34497;SDS011;20744;50.938;7.286;2023-02-03T03:10:36;12.75;;;3.28;;
34497;SDS011;20744;50.938;7.286;2023-02-03T03:13:04;8.52;;;2.92;;
34497;SDS011;20744;50.938;7.286;2023-02-03T03:15:32;8.90;;;2.92;;
34497;SDS011;20744;50.938;7.286;2023-02-03T03:18:03;14.27;;;3.17;;
34497;SDS011;20744;50.938;7.286;2023-02-03T03:20:33;7.07;;;2.80;;
34497;SDS011;20744;50.938;7.286;2023-02-03T03:23:06;11.98;;;2.75;;
34497;SDS011;20744;50.938;7.286;2023-02-03T03:25:34;11.25;;;3.28;;
34497;SDS011;20744;50.938;7.286;2023-02-03T03:28:03;10.73;;;3.40;;
34497;SDS011;20744;50.938;7.286;2023-02-03T03:30:34;13.10;;;3.70;;
34497;SDS011;20744;50.938;7.286;2023-02-03T03:33:02;14.70;;;3.30;;
34497;SDS011;20744;50.938;7.286;2023-02-03T03:35:30;14.95;;;3.97;;
34497;SDS011;20744;50.938;7.286;2023-02-03T03:38:02;12.20;;;3.50;;
34497;SDS011;20744;50.938;7.286;2023-02-03T03:40:33;16.40;;;3.90;;
34497;SDS011;20744;50.938;7.286;2023-02-03T03:43:05;9.90;;;3.33;;
34497;SDS011;20744;50.938;7.286;2023-02-03T03:45:34;9.73;;;3.17;;
34497;SDS011;20744;50.938;7.286;2023-02-03T03:48:05;21.42;;;3.92;;
34497;SDS011;20744;50.938;7.286;2023-02-03T03:50:36;10.52;;;3.85;;
34497;SDS011;20744;50.938;7.286;2023-02-03T03:53:05;11.90;;;3.58;;
34497;SDS011;20744;50.938;7.286;2023-02-03T03:55:33;11.13;;;3.33;;
34497;SDS011;20744;50.938;7.286;2023-02-03T03:58:03;8.95;;;3.42;;
34497;SDS011;20744;50.938;7.286;2023-02-03T04:00:32;14.00;;;3.53;;
34497;SDS011;20744;50.938;7.286;2023-02-03T04:03:01;12.60;;;3.50;;
34497;SDS011;20744;50.938;7.286;2023-02-03T04:05:30;11.10;;;3.15;;
34497;SDS011;20744;50.938;7.286;2023-02-03T04:07:58;12.35;;;4.47;;
34497;SDS011;20744;50.938;7.286;2023-02-03T04:10:29;16.50;;;3.70;;
34497;SDS011;20744;50.938;7.286;2023-02-03T04:12:57;7.32;;;3.10;;
34497;SDS011;20744;50.938;7.286;2023-02-03T04:15:24;10.50;;;3.85;;
34497;SDS011;20744;50.938;7.286;2023-02-03T04:17:51;14.88;;;3.63;;
34497;SDS011;20744;50.938;7.286;2023-02-03T04:20:21;11.95;;;3.40;;
34497;SDS011;20744;50.938;7.286;2023-02-03T04:22:48;17.77;;;4.13;;
34497;SDS011;20744;50.938;7.286;2023-02-03T04:25:15;8.68;;;3.47;;
34497;SDS011;20744;50.938;7.286;2023-02-03T04:27:44;9.40;;;3.60;;
34497;SDS011;20744;50.938;7.286;2023-02-03T04:30:12;11.27;;;3.35;;
34497;SDS011;20744;50.938;7.286;2023-02-03T04:32:39;10.52;;;3.50;;
34497;SDS011;20744;50.938;7.286;2023-02-03T04:35:06;10.15;;;3.53;;
34497;SDS011;20744;50.938;7.286;2023-02-03T04:37:34;14.73;;;3.60;;
34497;SDS011;20744;50.938;7.286;2023-02-03T04:40:01;9.45;;;3.47;;
34497;SDS011;20744;50.938;7.286;2023-02-03T04:42:28;14.60;;;3.63;;
34497;SDS011;20744;50.938;7.286;2023-02-03T04:44:57;10.05;;;3.58;;
34497;SDS011;20744;50.938;7.286;2023-02-03T04:47:24;16.98;;;3.85;;
34497;SDS011;20744;50.938;7.286;2023-02-03T04:49:51;7.40;;;3.35;;
34497;SDS011;20744;50.938;7.286;2023-02-03T04:52:18;8.40;;;3.30;;
34497;SDS011;20744;50.938;7.286;2023-02-03T04:54:46;11.85;;;3.58;;
34497;SDS011;20744;50.938;7.286;2023-02-03T04:57:13;17.27;;;3.55;;
34497;SDS011;20744;50.938;7.286;2023-02-03T04:59:40;10.15;;;3.65;;
34497;SDS011;20744;50.938;7.286;2023-02-03T05:02:09;10.98;;;2.70;;
34497;SDS011;20744;50.938;7.286;2023-02-03T05:04:36;14.90;;;3.50;;
34497;SDS011;20744;50.938;7.286;2023-02-03T05:07:03;10.38;;;2.75;;
34497;SDS011;20744;50.938;7.286;2023-02-03T05:09:30;9.30;;;2.90;;
34497;SDS011;20744;50.938;7.286;2023-02-03T05:11:58;9.65;;;3.22;;
34497;SDS011;20744;50.938;7.286;2023-02-03T05:14:25;9.15;;;2.97;;
34497;SDS011;20744;50.938;7.286;2023-02-03T05:16:52;6.63;;;2.63;;
34497;SDS011;20744;50.938;7.286;2023-02-03T05:19:21;7.80;;;2.75;;
34497;SDS011;20744;50.938;7.286;2023-02-03T05:21:48;18.13;;;3.33;;
34497;SDS011;20744;50.938;7.286;2023-02-03T05:24:15;7.07;;;3.03;;
34497;SDS011;20744;50.938;7.286;2023-02-03T05:26:42;10.95;;;3.50;;
34497;SDS011;20744;50.938;7.286;2023-02-03T05:29:09;8.95;;;2.53;;
34497;SDS011;20744;50.938;7.286;2023-02-03T05:31:37;12.45;;;2.63;;
34497;SDS011;20744;50.938;7.286;2023-02-03T05:34:07;9.07;;;2.83;;
34497;SDS011;20744;50.938;7.286;2023-02-03T05:36:36;13.18;;;2.97;;
34497;SDS011;20744;50.938;7.286;2023-02-03T05:39:03;10.95;;;2.58;;
34497;SDS011;20744;50.938;7.286;2023-02-03T05:41:30;14.98;;;3.47;;
34497;SDS011;20744;50.938;7.286;2023-02-03T05:44:15;16.05;;;2.85;;
34497;SDS011;20744;50.938;7.286;2023-02-03T05:46:42;10.70;;;3.28;;
34497;SDS011;20744;50.938;7.286;2023-02-03T05:49:09;9.18;;;3.15;;
34497;SDS011;20744;50.938;7.286;2023-02-03T05:51:38;8.77;;;2.75;;
34497;SDS011;20744;50.938;7.286;2023-02-03T05:54:06;10.98;;;2.88;;
34497;SDS011;20744;50.938;7.286;2023-02-03T05:56:33;12.10;;;2.80;;
34497;SDS011;20744;50.938;7.286;2023-02-03T05:59:00;8.95;;;3.22;;
34497;SDS011;20744;50.938;7.286;2023-02-03T06:01:28;7.50;;;2.60;;
34497;SDS011;20744;50.938;7.286;2023-02-03T06:03:55;10.88;;;2.45;;
34497;SDS011;20744;50.938;7.286;2023-02-03T06:06:22;11.60;;;2.92;;
34497;SDS011;20744;50.938;7.286;2023-02-03T06:08:51;11.75;;;2.50;;
34497;SDS011;20744;50.938;7.286;2023-02-03T06:11:21;9.27;;;2.80;;
34497;SDS011;20744;50.938;7.286;2023-02-03T06:13:49;10.57;;;2.70;;
34497;SDS011;20744;50.938;7.286;2023-02-03T06:16:16;8.80;;;2.30;;
34497;SDS011;20744;50.938;7.286;2023-02-03T06:18:44;12.20;;;2.40;;
34497;SDS011;20744;50.938;7.286;2023-02-03T06:21:11;6.85;;;2.38;;
34497;SDS011;20744;50.938;7.286;2023-02-03T06:23:38;11.75;;;2.65;;
34497;SDS011;20744;50.938;7.286;2023-02-03T06:26:07;12.43;;;2.47;;
34497;SDS011;20744;50.938;7.286;2023-02-03T06:28:34;12.77;;;2.65;;
34497;SDS011;20744;50.938;7.286;2023-02-03T06:31:03;11.63;;;2.10;;
34497;SDS011;20744;50.938;7.286;2023-02-03T06:33:30;11.75;;;2.05;;
34497;SDS011;20744;50.938;7.286;2023-02-03T06:35:58;9.80;;;2.10;;
34497;SDS011;20744;50.938;7.286;2023-02-03T06:38:25;7.18;;;1.77;;
34497;SDS011;20744;50.938;7.286;2023-02-03T06:40:52;13.18;;;2.50;;
34497;SDS011;20744;50.938;7.286;2023-02-03T06:43:21;8.10;;;2.13;;
34497;SDS011;20744;50.938;7.286;2023-02-03T06:45:48;9.73;;;1.88;;
34497;SDS011;20744;50.938;7.286;2023-02-03T06:48:15;9.95;;;2.30;;
34497;SDS011;20744;50.938;7.286;2023-02-03T06:50:43;8.55;;;1.95;;
34497;SDS011;20744;50.938;7.286;2023-02-03T06:53:10;5.45;;;1.25;;
34497;SDS011;20744;50.938;7.286;2023-02-03T06:55:38;18.20;;;1.70;;
34497;SDS011;20744;50.938;7.286;2023-02-03T06:58:05;6.72;;;1.70;;
34497;SDS011;20744;50.938;7.286;2023-02-03T07:00:34;11.23;;;2.08;;
34497;SDS011;20744;50.938;7.286;2023-02-03T07:03:01;6.55;;;1.48;;
34497;SDS011;20744;50.938;7.286;2023-02-03T07:05:28;8.10;;;2.13;;
34497;SDS011;20744;50.938;7.286;2023-02-03T07:07:56;7.43;;;1.77;;
34497;SDS011;20744;50.938;7.286;2023-02-03T07:10:23;11.38;;;2.22;;
34497;SDS011;20744;50.938;7.286;2023-02-03T07:12:50;10.25;;;1.85;;
34497;SDS011;20744;50.938;7.286;2023-02-03T07:15:18;6.57;;;1.40;;
34497;SDS011;20744;50.938;7.286;2023-02-03T07:17:47;9.25;;;1.67;;
34497;SDS011;20744;50.938;7.286;2023-02-03T07:20:18;8.20;;;1.40;;
34497;SDS011;20744;50.938;7.286;2023-02-03T07:22:50;6.38;;;1.50;;
34497;SDS011;20744;50.938;7.286;2023-02-03T07:25:17;8.40;;;1.88;;
34497;SDS011;20744;50.938;7.286;2023-02-03T07:27:44;9.82;;;1.80;;
34497;SDS011;20744;50.938;7.286;2023-02-03T07:30:12;7.82;;;1.92;;
34497;SDS011;20744;50.938;7.286;2023-02-03T07:32:39;13.32;;;2.45;;
34497;SDS011;20744;50.938;7.286;2023-02-03T07:35:08;9.93;;;2.08;;
34497;SDS011;20744;50.938;7.286;2023-02-03T07:37:35;8.70;;;2.00;;
34497;SDS011;20744;50.938;7.286;2023-02-03T07:40:03;7.00;;;2.05;;
34497;SDS011;20744;50.938;7.286;2023-02-03T07:42:30;8.25;;;1.98;;
34497;SDS011;20744;50.938;7.286;2023-02-03T07:44:57;11.65;;;1.98;;
34497;SDS011;20744;50.938;7.286;2023-02-03T07:47:24;9.73;;;1.80;;
34497;SDS011;20744;50.938;7.286;2023-02-03T07:49:52;11.15;;;2.15;;
34497;SDS011;20744;50.938;7.286;2023-02-03T07:52:20;11.52;;;2.00;;
34497;SDS011;20744;50.938;7.286;2023-02-03T07:54:48;10.00;;;2.05;;
34497;SDS011;20744;50.938;7.286;2023-02-03T07:57:15;12.45;;;2.10;;
34497;SDS011;20744;50.938;7.286;2023-02-03T07:59:42;11.68;;;1.85;;
34497;SDS011;20744;50.938;7.286;2023-02-03T08:02:09;12.30;;;1.92;;
34497;SDS011;20744;50.938;7.286;2023-02-03T08:04:36;8.30;;;2.00;;
34497;SDS011;20744;50.938;7.286;2023-02-03T08:07:04;9.52;;;2.08;;
34497;SDS011;20744;50.938;7.286;2023-02-03T08:09:32;7.72;;;1.80;;
34497;SDS011;20744;50.938;7.286;2023-02-03T08:12:00;12.93;;;2.33;;
34497;SDS011;20744;50.938;7.286;2023-02-03T08:14:27;8.75;;;1.85;;
34497;SDS011;20744;50.938;7.286;2023-02-03T08:16:55;8.25;;;2.10;;
34497;SDS011;20744;50.938;7.286;2023-02-03T08:19:22;8.60;;;1.83;;
34497;SDS011;20744;50.938;7.286;2023-02-03T08:21:49;8.27;;;1.95;;
34497;SDS011;20744;50.938;7.286;2023-02-03T08:24:17;10.27;;;1.90;;
34497;SDS011;20744;50.938;7.286;2023-02-03T08:26:45;9.82;;;2.38;;
34497;SDS011;20744;50.938;7.286;2023-02-03T08:29:12;5.93;;;1.50;;
34497;SDS011;20744;50.938;7.286;2023-02-03T08:31:40;7.32;;;1.67;;
34497;SDS011;20744;50.938;7.286;2023-02-03T08:34:07;11.65;;;2.13;;
34497;SDS011;20744;50.938;7.286;2023-02-03T08:36:34;8.23;;;2.03;;
34497;SDS011;20744;50.938;7.286;2023-02-03T08:39:04;10.13;;;2.00;;
34497;SDS011;20744;50.938;7.286;2023-02-03T08:41:31;8.82;;;2.15;;
34497;SDS011;20744;50.938;7.286;2023-02-03T08:44:00;9.25;;;1.95;;
34497;SDS011;20744;50.938;7.286;2023-02-03T08:46:27;10.90;;;2.28;;
34497;SDS011;20744;50.938;7.286;2023-02-03T08:48:54;7.60;;;1.75;;
34497;SDS011;20744;50.938;7.286;2023-02-03T08:51:21;6.50;;;1.77;;
34497;SDS011;20744;50.938;7.286;2023-02-03T08:53:49;9.65;;;2.50;;
34497;SDS011;20744;50.938;7.286;2023-02-03T08:56:16;12.52;;;2.22;;
34497;SDS011;20744;50.938;7.286;2023-02-03T08:58:44;7.07;;;2.33;;
34497;SDS011;20744;50.938;7.286;2023-02-03T09:01:14;10.68;;;2.42;;
34497;SDS011;20744;50.938;7.286;2023-02-03T09:03:41;6.88;;;2.45;;
34497;SDS011;20744;50.938;7.286;2023-02-03T09:06:09;5.28;;;2.47;;
34497;SDS011;20744;50.938;7.286;2023-02-03T09:08:40;7.82;;;2.50;;
34497;SDS011;20744;50.938;7.286;2023-02-03T09:11:08;7.18;;;2.60;;
34497;SDS011;20744;50.938;7.286;2023-02-03T09:13:35;11.27;;;3.35;;
34497;SDS011;20744;50.938;7.286;2023-02-03T09:16:03;14.20;;;3.28;;
34497;SDS011;20744;50.938;7.286;2023-02-03T09:18:32;8.15;;;2.58;;
34497;SDS011;20744;50.938;7.286;2023-02-03T09:21:00;7.68;;;2.53;;
34497;SDS011;20744;50.938;7.286;2023-02-03T09:23:27;8.63;;;3.08;;
34497;SDS011;20744;50.938;7.286;2023-02-03T09:25:54;6.40;;;2.67;;
34497;SDS011;20744;50.938;7.286;2023-02-03T09:28:22;9.30;;;2.55;;
34497;SDS011;20744;50.938;7.286;2023-02-03T09:30:49;11.27;;;3.13;;
34497;SDS011;20744;50.938;7.286;2023-02-03T09:33:17;10.40;;;3.10;;
34497;SDS011;20744;50.938;7.286;2023-02-03T09:35:51;9.00;;;3.30;;
34497;SDS011;20744;50.938;7.286;2023-02-03T09:38:19;8.93;;;2.90;;
34497;SDS011;20744;50.938;7.286;2023-02-03T09:40:48;11.10;;;3.55;;
34497;SDS011;20744;50.938;7.286;2023-02-03T09:43:22;8.77;;;3.13;;
34497;SDS011;20744;50.938;7.286;2023-02-03T09:45:59;13.45;;;3.33;;
34497;SDS011;20744;50.938;7.286;2023-02-03T09:48:27;9.82;;;2.78;;
34497;SDS011;20744;50.938;7.286;2023-02-03T09:50:58;6.95;;;2.70;;
34497;SDS011;20744;50.938;7.286;2023-02-03T09:53:27;13.02;;;3.13;;
34497;SDS011;20744;50.938;7.286;2023-02-03T09:55:56;18.63;;;4.10;;
34497;SDS011;20744;50.938;7.286;2023-02-03T09:58:24;9.40;;;2.90;;
34497;SDS011;20744;50.938;7.286;2023-02-03T10:00:54;7.90;;;2.83;;
34497;SDS011;20744;50.938;7.286;2023-02-03T10:03:24;7.38;;;2.80;;
34497;SDS011;20744;50.938;7.286;2023-02-03T10:06:01;9.23;;;2.92;;
34497;SDS011;20744;50.938;7.286;2023-02-03T10:08:40;8.90;;;2.63;;
34497;SDS011;20744;50.938;7.286;2023-02-03T10:11:12;12.32;;;2.63;;
34497;SDS011;20744;50.938;7.286;2023-02-03T10:13:46;8.35;;;2.70;;
34497;SDS011;20744;50.938;7.286;2023-02-03T10:18:59;6.50;;;3.05;;
34497;SDS011;20744;50.938;7.286;2023-02-03T10:21:33;8.48;;;3.30;;
34497;SDS011;20744;50.938;7.286;2023-02-03T10:24:03;13.07;;;3.38;;
34497;SDS011;20744;50.938;7.286;2023-02-03T10:26:32;8.95;;;3.20;;
34497;SDS011;20744;50.938;7.286;2023-02-03T10:29:01;8.18;;;3.50;;
34497;SDS011;20744;50.938;7.286;2023-02-03T10:31:31;8.15;;;3.53;;
34497;SDS011;20744;50.938;7.286;2023-02-03T10:33:59;7.22;;;3.40;;
34497;SDS011;20744;50.938;7.286;2023-02-03T10:36:32;8.25;;;3.42;;
34497;SDS011;20744;50.938;7.286;2023-02-03T10:39:02;8.02;;;3.38;;
34497;SDS011;20744;50.938;7.286;2023-02-03T10:41:33;7.50;;;3.60;;
34497;SDS011;20744;50.938;7.286;2023-02-03T10:44:01;7.65;;;3.42;;
34497;SDS011;20744;50.938;7.286;2023-02-03T10:46:29;10.55;;;3.70;;
34497;SDS011;20744;50.938;7.286;2023-02-03T10:48:57;9.50;;;3.70;;
34497;SDS011;20744;50.938;7.286;2023-02-03T10:51:24;5.82;;;3.10;;
34497;SDS011;20744;50.938;7.286;2023-02-03T10:53:55;9.88;;;3.65;;
34497;SDS011;20744;50.938;7.286;2023-02-03T10:56:24;7.22;;;3.35;;
34497;SDS011;20744;50.938;7.286;2023-02-03T10:58:52;7.28;;;3.75;;
34497;SDS011;20744;50.938;7.286;2023-02-03T11:01:21;6.78;;;3.53;;
34497;SDS011;20744;50.938;7.286;2023-02-03T11:03:53;7.90;;;3.88;;
34497;SDS011;20744;50.938;7.286;2023-02-03T11:06:21;6.65;;;3.90;;
34497;SDS011;20744;50.938;7.286;2023-02-03T11:08:48;9.82;;;3.20;;
34497;SDS011;20744;50.938;7.286;2023-02-03T11:11:20;6.63;;;3.10;;
34497;SDS011;20744;50.938;7.286;2023-02-03T11:13:51;11.20;;;3.40;;
34497;SDS011;20744;50.938;7.286;2023-02-03T11:16:18;11.15;;;4.00;;
34497;SDS011;20744;50.938;7.286;2023-02-03T11:18:47;8.52;;;3.85;;
34497;SDS011;20744;50.938;7.286;2023-02-03T11:21:18;13.02;;;4.32;;
34497;SDS011;20744;50.938;7.286;2023-02-03T11:23:47;14.63;;;4.60;;
34497;SDS011;20744;50.938;7.286;2023-02-03T11:26:17;9.93;;;4.32;;
34497;SDS011;20744;50.938;7.286;2023-02-03T11:28:48;9.88;;;3.97;;
34497;SDS011;20744;50.938;7.286;2023-02-03T11:31:16;9.60;;;4.70;;
34497;SDS011;20744;50.938;7.286;2023-02-03T11:33:48;8.10;;;4.45;;
34497;SDS011;20744;50.938;7.286;2023-02-03T11:36:16;12.48;;;5.68;;
34497;SDS011;20744;50.938;7.286;2023-02-03T11:38:44;8.98;;;5.75;;
34497;SDS011;20744;50.938;7.286;2023-02-03T11:41:15;10.15;;;6.65;;
34497;SDS011;20744;50.938;7.286;2023-02-03T11:43:42;12.43;;;6.35;;
34497;SDS011;20744;50.938;7.286;2023-02-03T11:46:11;11.68;;;6.30;;
34497;SDS011;20744;50.938;7.286;2023-02-03T11:48:41;13.57;;;7.10;;
34497;SDS011;20744;50.938;7.286;2023-02-03T11:51:13;14.00;;;7.45;;
34497;SDS011;20744;50.938;7.286;2023-02-03T11:53:46;13.98;;;7.93;;
34497;SDS011;20744;50.938;7.286;2023-02-03T11:56:24;12.18;;;8.65;;
34497;SDS011;20744;50.938;7.286;2023-02-03T11:58:57;16.90;;;9.18;;
34497;SDS011;20744;50.938;7.286;2023-02-03T12:01:38;16.13;;;9.35;;
34497;SDS011;20744;50.938;7.286;2023-02-03T12:04:16;15.70;;;9.68;;
34497;SDS011;20744;50.938;7.286;2023-02-03T12:09:32;15.48;;;10.02;;
34497;SDS011;20744;50.938;7.286;2023-02-03T12:14:48;15.77;;;10.55;;
34497;SDS011;20744;50.938;7.286;2023-02-03T12:17:32;17.25;;;12.10;;
34497;SDS011;20744;50.938;7.286;2023-02-03T12:20:03;19.00;;;11.30;;
34497;SDS011;20744;50.938;7.286;2023-02-03T12:22:33;19.08;;;11.10;;
34497;SDS011;20744;50.938;7.286;2023-02-03T12:25:06;19.48;;;11.80;;
34497;SDS011;20744;50.938;7.286;2023-02-03T12:27:44;20.85;;;11.40;;
34497;SDS011;20744;50.938;7.286;2023-02-03T12:30:15;20.08;;;12.73;;
34497;SDS011;20744;50.938;7.286;2023-02-03T12:32:46;20.13;;;12.43;;
34497;SDS011;20744;50.938;7.286;2023-02-03T12:35:16;19.50;;;12.02;;
34497;SDS011;20744;50.938;7.286;2023-02-03T12:37:46;23.90;;;12.02;;
34497;SDS011;20744;50.938;7.286;2023-02-03T12:40:17;17.75;;;12.00;;
34497;SDS011;20744;50.938;7.286;2023-02-03T12:42:48;15.50;;;11.50;;
34497;SDS011;20744;50.938;7.286;2023-02-03T12:45:18;19.77;;;12.02;;
34497;SDS011;20744;50.938;7.286;2023-02-03T12:47:48;16.23;;;11.60;;
34497;SDS011;20744;50.938;7.286;2023-02-03T12:50:17;18.27;;;11.50;;
34497;SDS011;20744;50.938;7.286;2023-02-03T12:52:46;17.27;;;11.55;;
34497;SDS011;20744;50.938;7.286;2023-02-03T12:55:19;18.58;;;12.07;;
34497;SDS011;20744;50.938;7.286;2023-02-03T12:57:48;21.42;;;12.80;;
34497;SDS011;20744;50.938;7.286;2023-02-03T13:00:20;20.58;;;12.10;;
34497;SDS011;20744;50.938;7.286;2023-02-03T13:02:58;19.95;;;13.45;;
34497;SDS011;20744;50.938;7.286;2023-02-03T13:05:29;22.48;;;12.55;;
34497;SDS011;20744;50.938;7.286;2023-02-03T13:08:00;20.42;;;13.63;;
34497;SDS011;20744;50.938;7.286;2023-02-03T13:10:30;25.80;;;14.23;;
34497;SDS011;20744;50.938;7.286;2023-02-03T13:12:59;19.75;;;13.07;;
34497;SDS011;20744;50.938;7.286;2023-02-03T13:15:27;17.23;;;11.95;;
34497;SDS011;20744;50.938;7.286;2023-02-03T13:17:56;20.58;;;13.63;;
34497;SDS011;20744;50.938;7.286;2023-02-03T13:20:27;23.48;;;13.40;;
34497;SDS011;20744;50.938;7.286;2023-02-03T13:22:55;22.83;;;14.10;;
34497;SDS011;20744;50.938;7.286;2023-02-03T13:25:23;24.42;;;14.25;;
34497;SDS011;20744;50.938;7.286;2023-02-03T13:27:54;22.52;;;14.07;;
34497;SDS011;20744;50.938;7.286;2023-02-03T13:30:38;19.58;;;13.55;;
34497;SDS011;20744;50.938;7.286;2023-02-03T13:33:24;20.13;;;14.20;;
34497;SDS011;20744;50.938;7.286;2023-02-03T13:35:58;21.47;;;15.57;;
34497;SDS011;20744;50.938;7.286;2023-02-03T13:38:33;24.42;;;15.27;;
34497;SDS011;20744;50.938;7.286;2023-02-03T13:41:06;26.13;;;15.52;;
34497;SDS011;20744;50.938;7.286;2023-02-03T13:43:35;21.27;;;15.88;;
34497;SDS011;20744;50.938;7.286;2023-02-03T13:46:04;21.48;;;14.85;;
34497;SDS011;20744;50.938;7.286;2023-02-03T13:48:33;25.25;;;16.00;;
34497;SDS011;20744;50.938;7.286;2023-02-03T13:51:03;29.35;;;16.20;;
34497;SDS011;20744;50.938;7.286;2023-02-03T13:53:32;27.40;;;16.45;;
34497;SDS011;20744;50.938;7.286;2023-02-03T13:56:01;25.58;;;15.90;;
34497;SDS011;20744;50.938;7.286;2023-02-03T13:58:29;23.70;;;15.90;;
34497;SDS011;20744;50.938;7.286;2023-02-03T14:03:40;26.50;;;15.98;;
34497;SDS011;20744;50.938;7.286;2023-02-03T14:06:10;23.98;;;15.98;;
34497;SDS011;20744;50.938;7.286;2023-02-03T14:08:57;24.98;;;15.15;;
34497;SDS011;20744;50.938;7.286;2023-02-03T14:17:02;26.52;;;14.95;;
34497;SDS011;20744;50.938;7.286;2023-02-03T14:22:24;23.60;;;14.63;;
34497;SDS011;20744;50.938;7.286;2023-02-03T14:24:52;21.10;;;13.98;;
34497;SDS011;20744;50.938;7.286;2023-02-03T14:27:21;25.98;;;14.25;;
34497;SDS011;20744;50.938;7.286;2023-02-03T14:30:01;22.83;;;14.13;;
34497;SDS011;20744;50.938;7.286;2023-02-03T14:35:14;23.35;;;12.02;;
34497;SDS011;20744;50.938;7.286;2023-02-03T14:37:44;24.98;;;12.55;;
34497;SDS011;20744;50.938;7.286;2023-02-03T14:40:23;23.15;;;12.93;;
34497;SDS011;20744;50.938;7.286;2023-02-03T14:42:58;24.60;;;12.07;;
34497;SDS011;20744;50.938;7.286;2023-02-03T14:45:43;25.85;;;12.38;;
34497;SDS011;20744;50.938;7.286;2023-02-03T14:48:16;21.73;;;11.50;;
34497;SDS011;20744;50.938;7.286;2023-02-03T14:50:51;21.33;;;11.35;;
34497;SDS011;20744;50.938;7.286;2023-02-03T14:53:26;22.85;;;11.68;;
34497;SDS011;20744;50.938;7.286;2023-02-03T14:55:59;23.27;;;11.05;;
34497;SDS011;20744;50.938;7.286;2023-02-03T14:58:31;26.08;;;11.48;;
34497;SDS011;20744;50.938;7.286;2023-02-03T15:01:01;23.40;;;9.73;;
34497;SDS011;20744;50.938;7.286;2023-02-03T15:03:29;16.77;;;10.27;;
34497;SDS011;20744;50.938;7.286;2023-02-03T15:05:59;21.80;;;10.90;;
34497;SDS011;20744;50.938;7.286;2023-02-03T15:08:39;21.30;;;9.90;;
34497;SDS011;20744;50.938;7.286;2023-02-03T15:11:26;25.63;;;9.98;;